Riner, Wyoming
Current Conditions -  °F | °C
As of 12:53 PM on Tuesday 21 Oct 2014 (Local Time) from KRWL Reporting Station
Clear Clear  
Wind Chill: 64°   Ceiling: Unl
Heat Index: 64°   Visibility: 10mi
Dew Point: 37°   Wind: 26mph
Humidity: 37%   Direction: 210°SSW
Pressure: 30.01"   Gusts: 39mph
Location:  41.7532°N, 107.372°W
Report Text: KRWL 211853Z AUTO 21023G34KT 10SM CLR 18/03 A3001 RMK AO2 PK WND 20037/1805 SLP088 T01780028
Loading
Personal Weather Stations






























Interactive Weather Map
Tropical Storm Tracking
New forecast layout! Learn more

10-Day Weather Forecast

Advertisements
Track Severe Weather on mobile